South Heart, ND (58655)

6:28 AM MDT on September 04, 2015 (GMT -0600)
Dickinson Municipal | | Change Station
CLOSE
Current Station
Airport
Location: Dickinson,
Elevation: 2592 ft
Nearby Weather Stations

Elev 2592 ft 46.80 °N, 102.80 °W | Updated 32 minutes ago

Rain
Rain
64 °F
Feels Like 64 °F
N
5
Wind Variable Wind from NE

Today
High -- | Low -- °F
--% Chance of Precip.
Yesterday
High -- | Low -- °F
Precip. -- in
6:15 AM 7:26 PM
Waning Gibbous, 60% visible
Pressure 29.73 in
Visibility 10.0 miles
Clouds Few 1300 ft
Scattered Clouds 12000 ft
Dew Point 58 °F
Humidity 80%
Rainfall 0.00 in
Snow Depth Not available.
UV 0 out of 12
Pollen 10.20 out of 12
Air Quality Not available.
Flu Activity Not available.
METAR KDIK 041156Z AUTO 05004KT 10SM FEW013 SCT120 18/14 A2978 RMK AO2 LTG DSNT SW AND W SLP065 T01780144 10206 20178 53007
Pressure 29.73 in
Visibility 10.0 miles
Clouds Few 1300 ft
Scattered Clouds 12000 ft
Dew Point 58 °F
Humidity 80%
Rainfall 0.00 in
Snow Depth Not available.
UV 0 out of 12
Pollen 10.20 out of 12
Air Quality Not available.
Flu Activity Not available.
METAR KDIK 041156Z AUTO 05004KT 10SM FEW013 SCT120 18/14 A2978 RMK AO2 LTG DSNT SW AND W SLP065 T01780144 10206 20178 53007

10-Day Weather Forecast

×

Almanac

Astronomy

Sep. 04, 2015 Rise Set
Actual Time
Civil Twilight
Nautical Twilight
Astronomical Twilight
Moon
Length of Visible Light
Length of Day
Tomorrow will be .
, % of the Moon is Illuminated

Today's Extremes

State Highs State Lows

Community

WunderPhotos

Upload Photos

1,852,160 photos uploaded!

WunderBlogs® & News

Nearby

Air Quality

  Air Quality AQ Index Pollutant
Not available.

Snow Depth

Station Depth Elevation

Earthquake Activity

City Distance Mag. Time & Date
Minimum magnitude displayed is 2.5.

Coastal Water Temperatures

Place Temperature

Stations

Nearby Weather Stations

Station Location Temp. Windchill Dew Point Humidity Wind Precip. Elev Updated Type